Time;durP1;ratioP1;P1;durP2;ratioP2;P2;SDS_P1;SDS_P2;PMS_P1;PMS_P2;Temp;Humidity;BMP_temperature;BMP_pressure;BME280_temperature;BME280_humidity;BME280_pressure;Samples;Min_cycle;Max_cycle;Signal;HPM_P1;HPM_P2
2022/07/17 00:00:43;;;;;;;4.63;2.08;;;;;;;;;;4917834;29;20039;-39
2022/07/17 00:03:15;;;;;;;3.20;1.77;;;;;;;;;;4917863;29;20036;-39
2022/07/17 00:05:41;;;;;;;2.67;1.73;;;;;;;;;;4917821;29;20035;-38
2022/07/17 00:08:07;;;;;;;2.92;1.88;;;;;;;;;;4917634;29;20076;-38
2022/07/17 00:10:34;;;;;;;1.77;1.60;;;;;;;;;;4917640;29;20064;-38
2022/07/17 00:12:59;;;;;;;2.53;1.80;;;;;;;;;;4917826;29;20056;-42
2022/07/17 00:15:25;;;;;;;6.05;1.80;;;;;;;;;;4918894;29;20063;-38
2022/07/17 00:17:50;;;;;;;2.10;1.50;;;;;;;;;;4919198;29;20024;-38
2022/07/17 00:20:16;;;;;;;3.33;1.60;;;;;;;;;;4918973;29;20114;-38
2022/07/17 00:22:42;;;;;;;3.03;1.58;;;;;;;;;;4918953;29;20016;-38
2022/07/17 00:25:09;;;;;;;1.75;1.40;;;;;;;;;;4919161;29;20102;-41
2022/07/17 00:27:36;;;;;;;2.80;1.48;;;;;;;;;;4918892;29;20679;-41
2022/07/17 00:30:02;;;;;;;2.60;1.60;;;;;;;;;;4917540;29;20032;-38
2022/07/17 00:32:28;;;;;;;2.47;1.50;;;;;;;;;;4918782;29;20043;-38
2022/07/17 00:34:53;;;;;;;1.67;1.50;;;;;;;;;;4918375;29;20024;-38
2022/07/17 00:37:19;;;;;;;2.75;1.40;;;;;;;;;;4917262;29;20469;-40
2022/07/17 00:39:44;;;;;;;7.70;1.65;;;;;;;;;;4918579;29;20106;-40
2022/07/17 00:42:14;;;;;;;2.40;1.45;;;;;;;;;;4918597;29;20488;-38
2022/07/17 00:44:41;;;;;;;1.88;1.52;;;;;;;;;;4918341;29;20048;-42
2022/07/17 00:47:12;;;;;;;1.40;1.30;;;;;;;;;;4918513;29;20043;-44
2022/07/17 00:49:38;;;;;;;1.60;1.40;;;;;;;;;;4918685;29;20046;-39
2022/07/17 00:52:04;;;;;;;3.83;1.40;;;;;;;;;;4918475;29;20107;-41
2022/07/17 00:54:30;;;;;;;1.30;1.20;;;;;;;;;;4918418;29;20492;-38
2022/07/17 00:56:57;;;;;;;4.75;1.40;;;;;;;;;;4918281;29;20028;-38
2022/07/17 00:59:25;;;;;;;1.85;1.33;;;;;;;;;;4918524;29;20028;-38
2022/07/17 01:01:50;;;;;;;3.17;1.52;;;;;;;;;;4918219;29;20027;-42
2022/07/17 01:04:15;;;;;;;2.15;1.50;;;;;;;;;;4918574;29;20033;-39
2022/07/17 01:06:41;;;;;;;1.75;1.58;;;;;;;;;;4918325;29;20031;-43
2022/07/17 01:09:10;;;;;;;1.25;1.10;;;;;;;;;;4918171;29;20028;-44
2022/07/17 01:11:36;;;;;;;1.88;1.40;;;;;;;;;;4918407;29;20031;-42
2022/07/17 01:14:02;;;;;;;5.30;1.50;;;;;;;;;;4918388;29;20391;-39
2022/07/17 01:16:28;;;;;;;1.50;1.40;;;;;;;;;;4918317;29;20032;-41
2022/07/17 01:18:53;;;;;;;2.28;1.38;;;;;;;;;;4918030;29;20032;-44
2022/07/17 01:21:19;;;;;;;1.88;1.38;;;;;;;;;;4918300;29;20028;-40
2022/07/17 01:23:44;;;;;;;1.98;1.45;;;;;;;;;;4917982;29;20437;-40
2022/07/17 01:26:10;;;;;;;4.22;1.40;;;;;;;;;;4917976;29;20024;-41
2022/07/17 01:28:35;;;;;;;3.65;1.30;;;;;;;;;;4917749;29;20028;-40
2022/07/17 01:31:02;;;;;;;3.17;1.67;;;;;;;;;;4917803;29;20083;-40
2022/07/17 01:33:28;;;;;;;1.40;1.30;;;;;;;;;;4917805;29;20480;-41
2022/07/17 01:35:53;;;;;;;1.48;1.38;;;;;;;;;;4917688;29;20052;-41
2022/07/17 01:38:19;;;;;;;1.48;1.38;;;;;;;;;;4917990;29;20083;-41
2022/07/17 01:40:44;;;;;;;1.73;1.30;;;;;;;;;;4917346;29;20084;-40
2022/07/17 01:43:09;;;;;;;2.97;1.40;;;;;;;;;;4917606;29;20523;-41
2022/07/17 01:45:35;;;;;;;1.42;1.30;;;;;;;;;;4916345;29;20047;-40
2022/07/17 01:48:00;;;;;;;1.20;1.10;;;;;;;;;;4917495;29;20040;-42
2022/07/17 01:50:26;;;;;;;2.78;1.40;;;;;;;;;;4917464;29;20040;-40
2022/07/17 01:52:51;;;;;;;1.60;1.30;;;;;;;;;;4917485;29;20024;-41
2022/07/17 01:55:17;;;;;;;1.73;1.48;;;;;;;;;;4917272;29;20023;-40
2022/07/17 01:57:43;;;;;;;1.65;1.55;;;;;;;;;;4917331;29;20030;-39
2022/07/17 02:00:14;;;;;;;2.45;1.60;;;;;;;;;;4917343;29;20032;-40
2022/07/17 02:02:39;;;;;;;3.13;1.40;;;;;;;;;;4917484;29;20068;-41
2022/07/17 02:05:05;;;;;;;2.40;1.33;;;;;;;;;;4917190;29;20028;-40
2022/07/17 02:07:32;;;;;;;3.30;1.38;;;;;;;;;;4917357;29;20024;-39
2022/07/17 02:09:57;;;;;;;2.72;1.50;;;;;;;;;;4917337;29;20048;-43
2022/07/17 02:12:22;;;;;;;3.10;1.63;;;;;;;;;;4917150;29;20436;-39
2022/07/17 02:14:48;;;;;;;1.95;1.33;;;;;;;;;;4917079;29;20405;-41
2022/07/17 02:17:14;;;;;;;1.67;1.25;;;;;;;;;;4915816;29;20032;-41
2022/07/17 02:19:39;;;;;;;1.42;1.20;;;;;;;;;;4917266;29;20461;-39
2022/07/17 02:22:04;;;;;;;3.55;1.50;;;;;;;;;;4916922;29;20020;-41
2022/07/17 02:24:30;;;;;;;1.45;1.30;;;;;;;;;;4916875;29;20032;-42
2022/07/17 02:26:55;;;;;;;4.15;1.30;;;;;;;;;;4916801;29;20023;-39
2022/07/17 02:29:21;;;;;;;1.58;1.20;;;;;;;;;;4916775;29;20043;-40
2022/07/17 02:31:46;;;;;;;1.40;1.30;;;;;;;;;;4916711;29;20121;-42
2022/07/17 02:34:12;;;;;;;2.85;1.20;;;;;;;;;;4916885;29;20035;-40
2022/07/17 02:36:37;;;;;;;3.08;1.60;;;;;;;;;;4916557;29;20024;-41
2022/07/17 02:39:03;;;;;;;4.82;1.50;;;;;;;;;;4916865;29;20122;-41
2022/07/17 02:41:28;;;;;;;4.32;1.20;;;;;;;;;;4916542;29;20473;-39
2022/07/17 02:43:54;;;;;;;2.30;1.25;;;;;;;;;;4916270;29;20051;-41
2022/07/17 02:46:19;;;;;;;3.05;1.35;;;;;;;;;;4916450;29;20034;-40
2022/07/17 02:48:45;;;;;;;3.10;1.30;;;;;;;;;;4916329;29;20032;-40
2022/07/17 02:51:10;;;;;;;1.42;1.30;;;;;;;;;;4916471;29;20032;-40
2022/07/17 02:53:36;;;;;;;1.70;1.40;;;;;;;;;;4915822;29;20484;-41
2022/07/17 02:56:01;;;;;;;1.60;1.10;;;;;;;;;;4916391;29;20103;-41
2022/07/17 02:58:27;;;;;;;2.97;1.35;;;;;;;;;;4916479;29;20116;-40
2022/07/17 03:00:52;;;;;;;2.38;1.50;;;;;;;;;;4916387;29;20020;-42
2022/07/17 03:03:20;;;;;;;1.02;1.02;;;;;;;;;;4916381;29;20055;-40
2022/07/17 03:05:45;;;;;;;1.95;1.48;;;;;;;;;;4916287;29;20028;-40
2022/07/17 03:08:11;;;;;;;1.40;1.20;;;;;;;;;;4916221;29;20158;-39
2022/07/17 03:10:36;;;;;;;3.17;1.30;;;;;;;;;;4916263;29;20110;-41
2022/07/17 03:13:02;;;;;;;1.10;1.00;;;;;;;;;;4916542;29;20056;-41
2022/07/17 03:15:27;;;;;;;1.40;1.30;;;;;;;;;;4916441;29;20032;-44
2022/07/17 03:17:53;;;;;;;2.05;1.30;;;;;;;;;;4916473;29;20424;-40
2022/07/17 03:20:18;;;;;;;4.22;1.30;;;;;;;;;;4916220;29;20024;-40
2022/07/17 03:22:44;;;;;;;1.10;1.10;;;;;;;;;;4916172;29;20029;-39
2022/07/17 03:25:09;;;;;;;2.92;1.20;;;;;;;;;;4916208;29;20020;-40
2022/07/17 03:27:35;;;;;;;2.55;1.20;;;;;;;;;;4916368;29;20039;-40
2022/07/17 03:30:00;;;;;;;1.27;1.17;;;;;;;;;;4916116;29;20639;-39
2022/07/17 03:32:26;;;;;;;6.95;1.40;;;;;;;;;;4916064;29;20040;-40
2022/07/17 03:34:51;;;;;;;1.50;1.13;;;;;;;;;;4916065;29;20028;-45
2022/07/17 03:37:17;;;;;;;8.57;1.50;;;;;;;;;;4916021;29;20028;-40
2022/07/17 03:39:43;;;;;;;2.40;1.50;;;;;;;;;;4916306;29;20032;-41
2022/07/17 03:42:08;;;;;;;2.28;1.20;;;;;;;;;;4915913;29;20421;-41
2022/07/17 03:44:34;;;;;;;1.63;1.13;;;;;;;;;;4915875;29;20108;-41
2022/07/17 03:47:00;;;;;;;2.40;1.30;;;;;;;;;;4916003;29;20080;-39
2022/07/17 03:49:25;;;;;;;3.60;1.73;;;;;;;;;;4915840;29;20087;-41
2022/07/17 03:51:51;;;;;;;1.25;1.08;;;;;;;;;;4915933;29;20024;-41
2022/07/17 03:54:16;;;;;;;1.90;1.50;;;;;;;;;;4916085;29;20064;-40
2022/07/17 03:56:42;;;;;;;2.15;1.25;;;;;;;;;;4916034;29;20035;-41
2022/07/17 03:59:07;;;;;;;1.20;1.10;;;;;;;;;;4916049;29;20062;-41
2022/07/17 04:01:33;;;;;;;25.17;2.47;;;;;;;;;;4916113;29;20441;-44
2022/07/17 04:03:58;;;;;;;10.25;1.40;;;;;;;;;;4917413;29;20155;-42
2022/07/17 04:06:24;;;;;;;4.07;1.42;;;;;;;;;;4919397;29;20047;-39
2022/07/17 04:08:49;;;;;;;2.25;1.10;;;;;;;;;;4919139;29;20039;-41
2022/07/17 04:11:15;;;;;;;2.45;1.20;;;;;;;;;;4919568;29;20039;-42
2022/07/17 04:13:40;;;;;;;1.17;1.10;;;;;;;;;;4919282;29;20476;-44
2022/07/17 04:16:06;;;;;;;1.63;1.25;;;;;;;;;;4919204;29;20024;-43
2022/07/17 04:18:33;;;;;;;1.23;1.00;;;;;;;;;;4919093;29;20035;-43
2022/07/17 04:21:08;;;;;;;2.28;1.10;;;;;;;;;;4919413;29;20100;-41
2022/07/17 04:23:34;;;;;;;1.08;1.00;;;;;;;;;;4919332;29;20114;-42
2022/07/17 04:26:00;;;;;;;0.90;0.90;;;;;;;;;;4919040;29;20024;-42
2022/07/17 04:28:26;;;;;;;0.85;0.85;;;;;;;;;;4919182;29;20063;-42
2022/07/17 04:30:52;;;;;;;1.67;0.90;;;;;;;;;;4919206;29;20071;-41
2022/07/17 04:33:17;;;;;;;4.15;0.93;;;;;;;;;;4919203;29;20020;-42
2022/07/17 04:35:43;;;;;;;1.10;0.90;;;;;;;;;;4919121;29;20029;-42
2022/07/17 04:38:09;;;;;;;4.68;1.10;;;;;;;;;;4918924;29;20425;-39
2022/07/17 04:40:37;;;;;;;1.30;1.13;;;;;;;;;;4919083;29;20043;-42
2022/07/17 04:43:04;;;;;;;5.00;1.00;;;;;;;;;;4918593;29;20569;-42
2022/07/17 04:45:30;;;;;;;3.50;1.10;;;;;;;;;;4918760;29;20028;-41
2022/07/17 04:47:55;;;;;;;1.00;0.90;;;;;;;;;;4918886;29;20035;-42
2022/07/17 04:50:21;;;;;;;1.13;0.93;;;;;;;;;;4918632;29;20032;-42
2022/07/17 04:52:47;;;;;;;0.70;0.70;;;;;;;;;;4917630;29;20072;-41
2022/07/17 04:55:13;;;;;;;2.92;0.80;;;;;;;;;;4918498;29;20544;-41
2022/07/17 04:57:38;;;;;;;1.85;0.90;;;;;;;;;;4918458;29;20065;-44
2022/07/17 05:00:06;;;;;;;3.78;1.02;;;;;;;;;;4918367;29;20020;-43
2022/07/17 05:02:31;;;;;;;0.75;0.75;;;;;;;;;;4918367;29;20031;-41
2022/07/17 05:04:57;;;;;;;1.05;0.98;;;;;;;;;;4918349;29;20036;-39
2022/07/17 05:07:23;;;;;;;1.10;0.73;;;;;;;;;;4918503;29;20033;-42
2022/07/17 05:09:49;;;;;;;2.13;0.90;;;;;;;;;;4918298;29;20422;-42
2022/07/17 05:12:14;;;;;;;1.55;1.10;;;;;;;;;;4918553;29;20036;-42
2022/07/17 05:14:40;;;;;;;2.30;0.82;;;;;;;;;;4916977;29;20024;-42
2022/07/17 05:17:05;;;;;;;0.80;0.80;;;;;;;;;;4917718;29;20123;-43
2022/07/17 05:19:31;;;;;;;2.38;0.80;;;;;;;;;;4918338;29;20039;-42
2022/07/17 05:21:56;;;;;;;0.95;0.80;;;;;;;;;;4918009;29;20028;-44
2022/07/17 05:24:22;;;;;;;3.42;0.90;;;;;;;;;;4918023;29;20028;-43
2022/07/17 05:26:47;;;;;;;1.67;1.02;;;;;;;;;;4918121;29;20028;-43
2022/07/17 05:29:12;;;;;;;0.90;0.90;;;;;;;;;;4918002;29;20484;-42
2022/07/17 05:31:38;;;;;;;1.00;0.90;;;;;;;;;;4917822;29;20024;-43
2022/07/17 05:34:04;;;;;;;4.00;0.98;;;;;;;;;;4917667;29;20032;-42
2022/07/17 05:36:29;;;;;;;1.23;0.80;;;;;;;;;;4917786;29;20028;-43
2022/07/17 05:38:54;;;;;;;2.45;0.70;;;;;;;;;;4917726;29;20392;-37
2022/07/17 05:41:20;;;;;;;0.85;0.85;;;;;;;;;;4917865;29;20024;-38
2022/07/17 05:43:45;;;;;;;0.93;0.77;;;;;;;;;;4917487;29;20445;-39
2022/07/17 05:46:11;;;;;;;1.35;0.95;;;;;;;;;;4917656;29;20104;-38
2022/07/17 05:48:37;;;;;;;1.30;0.90;;;;;;;;;;4917380;29;20505;-37
2022/07/17 05:51:03;;;;;;;0.82;0.80;;;;;;;;;;4917668;29;20024;-40
2022/07/17 05:53:29;;;;;;;0.95;0.77;;;;;;;;;;4917373;29;20024;-41
2022/07/17 05:55:54;;;;;;;3.97;0.73;;;;;;;;;;4917420;29;20030;-43
2022/07/17 05:58:20;;;;;;;0.80;0.80;;;;;;;;;;4917622;29;20038;-42
2022/07/17 06:00:45;;;;;;;1.77;0.77;;;;;;;;;;4916070;29;20083;-40
2022/07/17 06:03:11;;;;;;;3.00;1.27;;;;;;;;;;4917501;29;20071;-41
2022/07/17 06:05:37;;;;;;;1.70;1.00;;;;;;;;;;4917528;29;20062;-40
2022/07/17 06:08:03;;;;;;;2.40;0.70;;;;;;;;;;4917016;29;20024;-41
2022/07/17 06:10:29;;;;;;;0.65;0.65;;;;;;;;;;4917446;29;20033;-42
2022/07/17 06:12:56;;;;;;;0.75;0.75;;;;;;;;;;4917125;29;20245;-40
2022/07/17 06:15:22;;;;;;;2.38;0.73;;;;;;;;;;4917343;29;20405;-40
2022/07/17 06:17:47;;;;;;;5.90;0.98;;;;;;;;;;4916961;29;20032;-39
2022/07/17 06:20:14;;;;;;;3.20;0.80;;;;;;;;;;4917258;29;20039;-40
2022/07/17 06:22:40;;;;;;;3.08;0.90;;;;;;;;;;4916888;29;20036;-43
2022/07/17 06:25:07;;;;;;;2.13;0.80;;;;;;;;;;4917036;29;20088;-39
2022/07/17 06:27:33;;;;;;;3.63;0.85;;;;;;;;;;4916724;29;20020;-39
2022/07/17 06:29:59;;;;;;;9.93;0.95;;;;;;;;;;4917083;29;20028;-42
2022/07/17 06:32:24;;;;;;;2.88;0.80;;;;;;;;;;4916767;29;20030;-43
2022/07/17 06:34:50;;;;;;;2.25;0.70;;;;;;;;;;4916704;29;20064;-41
2022/07/17 06:37:15;;;;;;;2.45;1.17;;;;;;;;;;4916716;29;20035;-39
2022/07/17 06:39:41;;;;;;;1.95;1.15;;;;;;;;;;4916922;29;20385;-44
2022/07/17 06:42:07;;;;;;;1.80;0.50;;;;;;;;;;4916657;29;20673;-44
2022/07/17 06:44:33;;;;;;;1.23;0.70;;;;;;;;;;4916332;29;20448;-41
2022/07/17 06:46:58;;;;;;;1.73;0.55;;;;;;;;;;4916503;29;20040;-41
2022/07/17 06:49:24;;;;;;;2.05;0.70;;;;;;;;;;4916376;29;20024;-38
2022/07/17 06:51:49;;;;;;;1.35;0.60;;;;;;;;;;4916748;29;20032;-40
2022/07/17 06:54:15;;;;;;;1.33;0.60;;;;;;;;;;4916363;29;20460;-42
2022/07/17 06:56:41;;;;;;;2.35;0.60;;;;;;;;;;4916739;29;20039;-40
2022/07/17 06:59:07;;;;;;;1.75;0.98;;;;;;;;;;4916644;29;20032;-41
2022/07/17 07:01:37;;;;;;;1.65;0.60;;;;;;;;;;4916380;29;20029;-40
2022/07/17 07:04:03;;;;;;;7.90;0.77;;;;;;;;;;4916267;29;20028;-40
2022/07/17 07:06:30;;;;;;;4.35;0.70;;;;;;;;;;4916294;29;20032;-39
2022/07/17 07:08:56;;;;;;;1.88;0.85;;;;;;;;;;4916444;29;20107;-40
2022/07/17 07:11:23;;;;;;;1.27;0.80;;;;;;;;;;4916254;29;20028;-42
2022/07/17 07:13:48;;;;;;;1.73;0.60;;;;;;;;;;4915393;29;20092;-40
2022/07/17 07:16:14;;;;;;;3.35;0.80;;;;;;;;;;4916057;29;20625;-40
2022/07/17 07:18:39;;;;;;;3.17;0.70;;;;;;;;;;4916096;29;20540;-40
2022/07/17 07:21:05;;;;;;;2.03;0.85;;;;;;;;;;4913156;29;20032;-39
2022/07/17 07:23:30;;;;;;;4.55;0.90;;;;;;;;;;4914444;29;20584;-40
2022/07/17 07:25:56;;;;;;;0.60;0.60;;;;;;;;;;4914588;29;20039;-40
2022/07/17 07:28:21;;;;;;;2.10;0.80;;;;;;;;;;4914326;29;20472;-41
2022/07/17 07:30:47;;;;;;;1.00;0.75;;;;;;;;;;4914259;29;20051;-40
2022/07/17 07:33:12;;;;;;;2.00;0.50;;;;;;;;;;4914193;29;20028;-40
2022/07/17 07:35:38;;;;;;;2.15;0.55;;;;;;;;;;4914404;29;20035;-39
2022/07/17 07:38:04;;;;;;;2.50;0.80;;;;;;;;;;4914112;29;20048;-40
2022/07/17 07:40:30;;;;;;;5.88;0.80;;;;;;;;;;4918009;29;20037;-40
2022/07/17 07:42:57;;;;;;;0.68;0.68;;;;;;;;;;4918083;29;20055;-40
2022/07/17 07:45:23;;;;;;;0.68;0.60;;;;;;;;;;4918078;29;20031;-40
2022/07/17 07:47:50;;;;;;;2.30;0.90;;;;;;;;;;4917949;29;20021;-41
2022/07/17 07:50:16;;;;;;;1.05;0.63;;;;;;;;;;4917970;29;20071;-41
2022/07/17 07:52:42;;;;;;;3.15;0.70;;;;;;;;;;4917728;29;20071;-44
2022/07/17 07:55:09;;;;;;;3.97;0.90;;;;;;;;;;4917638;29;20024;-39
2022/07/17 07:57:35;;;;;;;1.10;0.70;;;;;;;;;;4917810;29;20160;-39
2022/07/17 08:00:00;;;;;;;1.40;0.80;;;;;;;;;;4917739;29;20110;-41
2022/07/17 08:02:26;;;;;;;2.92;0.60;;;;;;;;;;4917896;29;20111;-39
2022/07/17 08:04:51;;;;;;;4.53;0.90;;;;;;;;;;4917568;29;20083;-41
2022/07/17 08:07:17;;;;;;;5.47;0.75;;;;;;;;;;4917543;29;20032;-40
2022/07/17 08:09:42;;;;;;;1.45;0.70;;;;;;;;;;4917334;29;20035;-40
2022/07/17 08:12:08;;;;;;;1.65;0.77;;;;;;;;;;4917321;29;20036;-40
2022/07/17 08:14:34;;;;;;;0.73;0.70;;;;;;;;;;4917558;29;20384;-40
2022/07/17 08:16:59;;;;;;;1.50;0.95;;;;;;;;;;4917613;29;20462;-41
2022/07/17 08:19:25;;;;;;;1.15;0.80;;;;;;;;;;4917769;29;20024;-39
2022/07/17 08:21:51;;;;;;;6.53;0.90;;;;;;;;;;4917541;29;20040;-40
2022/07/17 08:24:16;;;;;;;3.30;0.70;;;;;;;;;;4917856;29;20039;-40
2022/07/17 08:26:43;;;;;;;1.35;0.70;;;;;;;;;;4917846;29;20020;-40
2022/07/17 08:29:08;;;;;;;0.60;0.60;;;;;;;;;;4917636;29;20031;-43
2022/07/17 08:31:34;;;;;;;1.55;0.60;;;;;;;;;;4917330;29;20142;-40
2022/07/17 08:34:01;;;;;;;0.85;0.85;;;;;;;;;;4917274;29;20400;-40
2022/07/17 08:36:26;;;;;;;0.73;0.60;;;;;;;;;;4917422;29;20027;-40
2022/07/17 08:38:52;;;;;;;0.77;0.75;;;;;;;;;;4917160;29;20028;-43
2022/07/17 08:41:21;;;;;;;2.38;0.60;;;;;;;;;;4917426;29;20071;-39
2022/07/17 08:43:48;;;;;;;;;;;;;;;;;;4917367;29;20053;-39
2022/07/17 08:46:15;;;;;;;0.60;0.60;;;;;;;;;;4917177;29;19931;-40
2022/07/17 08:48:41;;;;;;;1.63;0.70;;;;;;;;;;4915823;29;20495;-40
2022/07/17 08:51:08;;;;;;;4.20;0.70;;;;;;;;;;4913439;29;20119;-41
2022/07/17 08:53:34;;;;;;;1.83;0.80;;;;;;;;;;4914696;29;20033;-39
2022/07/17 08:55:59;;;;;;;2.08;0.52;;;;;;;;;;4916964;29;20028;-41
2022/07/17 08:58:25;;;;;;;1.25;0.77;;;;;;;;;;4917080;29;20036;-40
2022/07/17 09:00:51;;;;;;;0.60;0.52;;;;;;;;;;4916485;29;20119;-39
2022/07/17 09:03:17;;;;;;;0.60;0.60;;;;;;;;;;4915631;29;20031;-41
2022/07/17 09:05:44;;;;;;;1.67;0.70;;;;;;;;;;4915643;29;20032;-40
2022/07/17 09:08:17;;;;;;;0.57;0.57;;;;;;;;;;4915563;29;20028;-40
2022/07/17 09:10:45;;;;;;;3.50;0.70;;;;;;;;;;4913251;29;20016;-39
2022/07/17 09:13:29;;;;;;;1.90;0.70;;;;;;;;;;4914193;29;20032;-42
2022/07/17 09:15:58;;;;;;;5.68;0.88;;;;;;;;;;4914469;29;20499;-39
2022/07/17 09:18:23;;;;;;;0.60;0.60;;;;;;;;;;4913176;29;20076;-39
2022/07/17 09:20:51;;;;;;;2.75;0.68;;;;;;;;;;4916391;29;20047;-42
2022/07/17 09:23:21;;;;;;;0.60;0.57;;;;;;;;;;4916597;29;20123;-41
2022/07/17 09:25:52;;;;;;;2.38;0.77;;;;;;;;;;4916266;29;20032;-41
2022/07/17 09:28:18;;;;;;;1.30;0.60;;;;;;;;;;4916278;29;20551;-41
2022/07/17 09:30:47;;;;;;;2.28;0.80;;;;;;;;;;4916628;29;20032;-44
2022/07/17 09:33:15;;;;;;;1.52;0.77;;;;;;;;;;4916548;29;20170;-43
2022/07/17 09:35:49;;;;;;;0.75;0.68;;;;;;;;;;4916613;29;20557;-41
2022/07/17 09:38:35;;;;;;;1.60;0.65;;;;;;;;;;4916440;29;20091;-42
2022/07/17 09:41:11;;;;;;;7.93;2.00;;;;;;;;;;4916248;29;20031;-40
2022/07/17 09:43:44;;;;;;;5.25;1.92;;;;;;;;;;4916402;29;20063;-42
2022/07/17 09:46:12;;;;;;;0.73;0.70;;;;;;;;;;4917027;29;20048;-40
2022/07/17 09:48:47;;;;;;;2.40;0.80;;;;;;;;;;4917447;29;20067;-42
2022/07/17 09:51:24;;;;;;;1.85;0.90;;;;;;;;;;4917667;29;20262;-40
2022/07/17 09:53:53;;;;;;;1.45;0.80;;;;;;;;;;4898430;29;20116;-40
2022/07/17 09:56:20;;;;;;;0.85;0.70;;;;;;;;;;4898726;29;20393;-38
2022/07/17 09:58:49;;;;;;;3.30;0.80;;;;;;;;;;4912309;29;20028;-41
2022/07/17 10:01:16;;;;;;;0.88;0.70;;;;;;;;;;4915648;29;20016;-39
2022/07/17 10:03:43;;;;;;;5.05;1.05;;;;;;;;;;4916518;29;20067;-38
2022/07/17 10:06:11;;;;;;;2.05;0.75;;;;;;;;;;4916872;29;20028;-41
2022/07/17 10:08:38;;;;;;;0.60;0.60;;;;;;;;;;4917144;29;20043;-40
2022/07/17 10:11:10;;;;;;;1.42;0.60;;;;;;;;;;4917417;29;20036;-40
2022/07/17 10:13:38;;;;;;;5.15;1.00;;;;;;;;;;4916198;29;20103;-41
2022/07/17 10:16:04;;;;;;;1.25;0.70;;;;;;;;;;4917404;29;20380;-40
2022/07/17 10:18:44;;;;;;;0.95;0.52;;;;;;;;;;4916944;29;20111;-40
2022/07/17 10:21:09;;;;;;;2.72;0.63;;;;;;;;;;4916795;29;20027;-44
2022/07/17 10:23:35;;;;;;;0.60;0.60;;;;;;;;;;4916952;29;20103;-41
2022/07/17 10:26:01;;;;;;;2.60;0.63;;;;;;;;;;4916833;29;20043;-40
2022/07/17 10:28:41;;;;;;;1.92;0.70;;;;;;;;;;4917098;29;20032;-42
2022/07/17 10:31:07;;;;;;;2.25;0.60;;;;;;;;;;4917118;29;20062;-40
2022/07/17 10:33:32;;;;;;;2.90;0.82;;;;;;;;;;4916840;29;20524;-41
2022/07/17 10:35:59;;;;;;;1.27;0.88;;;;;;;;;;4916587;29;20087;-41
2022/07/17 10:38:27;;;;;;;3.15;0.60;;;;;;;;;;4917015;29;20444;-41
2022/07/17 10:41:03;;;;;;;0.98;0.50;;;;;;;;;;4915475;29;20047;-40
2022/07/17 10:43:50;;;;;;;2.28;0.90;;;;;;;;;;4916685;29;20052;-39
2022/07/17 10:46:15;;;;;;;1.58;0.60;;;;;;;;;;4915016;29;20036;-40
2022/07/17 10:48:49;;;;;;;1.05;0.73;;;;;;;;;;4916505;29;20392;-39
2022/07/17 10:51:16;;;;;;;0.70;0.70;;;;;;;;;;4916863;29;20035;-42
2022/07/17 10:53:41;;;;;;;0.70;0.50;;;;;;;;;;4916572;29;20448;-39
2022/07/17 10:56:08;;;;;;;0.95;0.60;;;;;;;;;;4916691;29;20032;-42
2022/07/17 10:58:35;;;;;;;3.83;0.70;;;;;;;;;;4916582;29;20024;-42
2022/07/17 11:01:10;;;;;;;5.45;0.70;;;;;;;;;;4916426;29;20032;-40
2022/07/17 11:03:56;;;;;;;0.85;0.73;;;;;;;;;;4916377;29;20362;-44
2022/07/17 11:06:30;;;;;;;1.73;0.80;;;;;;;;;;4916291;29;20056;-40
2022/07/17 11:09:04;;;;;;;1.48;0.75;;;;;;;;;;4916272;29;20032;-40
2022/07/17 11:11:51;;;;;;;2.50;0.70;;;;;;;;;;4916257;29;20083;-39
2022/07/17 11:14:25;;;;;;;2.28;0.85;;;;;;;;;;4915654;29;20532;-40
2022/07/17 11:16:58;;;;;;;0.82;0.80;;;;;;;;;;4916228;29;20123;-42
2022/07/17 11:19:26;;;;;;;4.38;0.50;;;;;;;;;;4916251;29;20388;-39
2022/07/17 11:21:53;;;;;;;1.25;0.60;;;;;;;;;;4916442;29;20416;-39
2022/07/17 11:24:18;;;;;;;2.20;0.70;;;;;;;;;;4916361;29;20047;-40
2022/07/17 11:26:45;;;;;;;2.28;0.70;;;;;;;;;;4916128;29;20457;-44
2022/07/17 11:29:11;;;;;;;2.60;0.80;;;;;;;;;;4914872;29;20039;-39
2022/07/17 11:31:37;;;;;;;2.92;0.65;;;;;;;;;;4916383;29;20377;-40
2022/07/17 11:34:08;;;;;;;1.95;0.60;;;;;;;;;;4916111;29;20032;-39
2022/07/17 11:36:38;;;;;;;6.30;0.80;;;;;;;;;;4916045;29;20028;-41
2022/07/17 11:39:10;;;;;;;0.60;0.60;;;;;;;;;;4915774;29;20063;-39
2022/07/17 11:41:37;;;;;;;1.10;0.63;;;;;;;;;;4915722;29;20029;-39
2022/07/17 11:44:04;;;;;;;1.08;0.50;;;;;;;;;;4914110;29;20176;-40
2022/07/17 11:46:31;;;;;;;2.38;0.50;;;;;;;;;;4914498;29;20032;-39
2022/07/17 11:48:57;;;;;;;10.73;1.30;;;;;;;;;;4914454;29;20036;-39
2022/07/17 11:51:45;;;;;;;0.93;0.63;;;;;;;;;;4914485;29;20093;-42
2022/07/17 11:54:15;;;;;;;2.10;0.70;;;;;;;;;;4914761;29;20040;-39
2022/07/17 11:56:43;;;;;;;0.80;0.50;;;;;;;;;;4914663;29;20040;-39
2022/07/17 11:59:09;;;;;;;1.70;0.60;;;;;;;;;;4914409;29;20028;-39
2022/07/17 12:01:40;;;;;;;0.60;0.52;;;;;;;;;;4914471;29;20557;-39
2022/07/17 12:04:08;;;;;;;2.45;0.50;;;;;;;;;;4915279;29;20024;-40
2022/07/17 12:06:34;;;;;;;1.25;0.68;;;;;;;;;;4915908;29;20445;-39
2022/07/17 12:08:59;;;;;;;7.00;0.73;;;;;;;;;;4915569;29;20024;-39
2022/07/17 12:11:25;;;;;;;1.08;0.70;;;;;;;;;;4916098;29;20028;-39
2022/07/17 12:13:50;;;;;;;0.50;0.50;;;;;;;;;;4915703;29;20408;-41
2022/07/17 12:16:28;;;;;;;0.98;0.60;;;;;;;;;;4915582;29;20119;-40
2022/07/17 12:19:05;;;;;;;0.50;0.50;;;;;;;;;;4915740;29;20024;-39
2022/07/17 12:22:03;;;;;;;0.55;0.55;;;;;;;;;;4915709;29;20558;-39
2022/07/17 12:24:37;;;;;;;1.95;0.60;;;;;;;;;;4916194;29;20028;-41
2022/07/17 12:27:05;;;;;;;2.00;0.73;;;;;;;;;;4919304;29;20024;-39
2022/07/17 12:29:31;;;;;;;3.97;0.57;;;;;;;;;;4918941;29;20024;-39
2022/07/17 12:32:16;;;;;;;4.70;0.70;;;;;;;;;;4918883;29;20039;-41
2022/07/17 12:34:48;;;;;;;0.70;0.50;;;;;;;;;;4918927;29;20039;-39
2022/07/17 12:37:19;;;;;;;6.25;0.77;;;;;;;;;;4918841;29;20116;-42
2022/07/17 12:39:46;;;;;;;1.25;0.60;;;;;;;;;;4919090;29;20123;-39
2022/07/17 12:42:13;;;;;;;0.55;0.50;;;;;;;;;;4918708;29;20024;-39
2022/07/17 12:44:38;;;;;;;0.73;0.68;;;;;;;;;;4918611;29;20453;-41
2022/07/17 12:47:04;;;;;;;0.52;0.50;;;;;;;;;;4919247;29;20112;-41
2022/07/17 12:49:30;;;;;;;1.40;1.08;;;;;;;;;;4918437;29;20469;-41
2022/07/17 12:51:57;;;;;;;1.13;0.60;;;;;;;;;;4918607;29;20393;-39
2022/07/17 12:54:23;;;;;;;1.45;0.60;;;;;;;;;;4918583;29;20024;-39
2022/07/17 12:56:49;;;;;;;1.83;0.52;;;;;;;;;;4918373;29;20030;-39
2022/07/17 12:59:14;;;;;;;0.60;0.60;;;;;;;;;;4918418;29;20036;-40
2022/07/17 13:01:40;;;;;;;1.20;0.50;;;;;;;;;;4918629;29;20032;-43
2022/07/17 13:04:05;;;;;;;0.50;0.50;;;;;;;;;;4918285;29;20392;-39
2022/07/17 13:06:32;;;;;;;1.92;0.80;;;;;;;;;;4918300;29;20028;-41
2022/07/17 13:08:58;;;;;;;1.65;0.50;;;;;;;;;;4918122;29;20040;-40
2022/07/17 13:11:24;;;;;;;0.80;0.60;;;;;;;;;;4918278;29;20036;-39
2022/07/17 13:13:49;;;;;;;0.60;0.60;;;;;;;;;;4918210;29;20075;-39
2022/07/17 13:16:15;;;;;;;1.15;0.73;;;;;;;;;;4918214;29;20107;-42
2022/07/17 13:18:41;;;;;;;0.65;0.65;;;;;;;;;;4918003;29;20035;-41
2022/07/17 13:21:08;;;;;;;0.60;0.60;;;;;;;;;;4918103;29;20031;-41
2022/07/17 13:23:35;;;;;;;0.95;0.65;;;;;;;;;;4917966;29;20032;-42
2022/07/17 13:26:01;;;;;;;0.88;0.70;;;;;;;;;;4917829;29;20035;-39
2022/07/17 13:28:26;;;;;;;0.63;0.50;;;;;;;;;;4917981;29;20482;-40
2022/07/17 13:30:52;;;;;;;1.50;0.70;;;;;;;;;;4917658;29;20055;-41
2022/07/17 13:33:17;;;;;;;0.93;0.60;;;;;;;;;;4917974;29;20123;-43
2022/07/17 13:35:43;;;;;;;2.03;0.52;;;;;;;;;;4916469;29;20028;-41
2022/07/17 13:38:09;;;;;;;3.33;0.80;;;;;;;;;;4917464;29;20021;-41
2022/07/17 13:40:35;;;;;;;0.70;0.70;;;;;;;;;;4917477;29;20084;-39
2022/07/17 13:43:01;;;;;;;3.13;0.60;;;;;;;;;;4917391;29;20104;-39
2022/07/17 13:45:27;;;;;;;0.50;0.50;;;;;;;;;;4917466;29;20036;-39
2022/07/17 13:47:53;;;;;;;0.80;0.70;;;;;;;;;;4917647;29;20127;-41
2022/07/17 13:50:19;;;;;;;0.50;0.50;;;;;;;;;;4916504;29;20024;-39
2022/07/17 13:52:45;;;;;;;2.40;0.60;;;;;;;;;;4917378;29;20056;-40
2022/07/17 13:55:11;;;;;;;0.63;0.50;;;;;;;;;;4917369;29;20056;-40
2022/07/17 13:57:36;;;;;;;0.50;0.50;;;;;;;;;;4916770;29;20040;-39
2022/07/17 14:00:04;;;;;;;2.92;0.60;;;;;;;;;;4898366;29;20037;-43
2022/07/17 14:02:29;;;;;;;0.57;0.57;;;;;;;;;;4897084;29;20671;-40
2022/07/17 14:04:56;;;;;;;0.90;0.63;;;;;;;;;;4897129;29;20504;-42
2022/07/17 14:07:21;;;;;;;0.57;0.57;;;;;;;;;;4898246;29;20036;-40
2022/07/17 14:09:47;;;;;;;2.75;0.70;;;;;;;;;;4909893;29;20130;-39
2022/07/17 14:12:12;;;;;;;0.88;0.70;;;;;;;;;;4917163;29;20032;-42
2022/07/17 14:14:38;;;;;;;2.28;0.70;;;;;;;;;;4917204;29;20056;-39
2022/07/17 14:17:03;;;;;;;1.25;0.60;;;;;;;;;;4916951;29;20083;-38
2022/07/17 14:19:29;;;;;;;1.05;0.65;;;;;;;;;;4916827;29;20492;-40
2022/07/17 14:21:54;;;;;;;1.60;0.65;;;;;;;;;;4915241;29;20036;-40
2022/07/17 14:24:20;;;;;;;0.60;0.60;;;;;;;;;;4909177;29;20389;-40
2022/07/17 14:26:47;;;;;;;1.05;0.50;;;;;;;;;;4915557;29;20027;-40
2022/07/17 14:29:14;;;;;;;1.67;0.60;;;;;;;;;;4914887;29;20032;-39
2022/07/17 14:31:39;;;;;;;0.90;0.57;;;;;;;;;;4916548;29;20037;-39
2022/07/17 14:34:05;;;;;;;4.10;0.73;;;;;;;;;;4915459;29;20666;-39
2022/07/17 14:36:30;;;;;;;1.33;0.63;;;;;;;;;;4915282;29;20044;-39
2022/07/17 14:38:56;;;;;;;1.25;0.57;;;;;;;;;;4915258;29;20031;-43
2022/07/17 14:41:21;;;;;;;2.67;0.68;;;;;;;;;;4915238;29;20060;-39